Time;durP1;ratioP1;P1;durP2;ratioP2;P2;SDS_P1;SDS_P2;PMS_P1;PMS_P2;Temp;Humidity;BMP_temperature;BMP_pressure;BME280_temperature;BME280_humidity;BME280_pressure;Samples;Min_cycle;Max_cycle;Signal;HPM_P1;HPM_P2
2022/05/14 00:01:18;;;;;;;6.77;3.87;;;12.90;99.90;;;;;;4995923;28;20251;-31
2022/05/14 00:03:45;;;;;;;5.93;3.93;;;12.90;99.90;;;;;;5013734;28;20178;-31
2022/05/14 00:06:17;;;;;;;9.70;4.07;;;12.90;99.90;;;;;;5013445;28;20249;-32
2022/05/14 00:08:44;;;;;;;5.70;3.83;;;12.80;99.90;;;;;;5013852;28;20182;-32
2022/05/14 00:13:55;;;;;;;6.33;3.53;;;12.60;99.90;;;;;;4995789;28;20188;-31
2022/05/14 00:16:23;;;;;;;6.50;4.40;;;12.60;99.90;;;;;;4996082;28;20186;-31
2022/05/14 00:18:50;;;;;;;6.07;3.83;;;12.50;99.90;;;;;;5013658;28;20197;-31
2022/05/14 00:21:16;;;;;;;9.47;4.13;;;12.50;99.90;;;;;;4979622;28;20201;-32
2022/05/14 00:23:42;;;;;;;5.13;3.83;;;12.40;99.90;;;;;;4995578;28;20266;-32
2022/05/14 00:26:07;;;;;;;5.97;3.67;;;12.40;99.90;;;;;;4995701;28;20281;-32
2022/05/14 00:28:34;;;;;;;10.67;5.00;;;12.40;99.90;;;;;;4995383;28;20238;-31
2022/05/14 00:31:00;;;;;;;6.80;4.20;;;12.30;99.90;;;;;;4979532;28;20217;-32
2022/05/14 00:33:26;;;;;;;7.00;4.47;;;12.20;99.90;;;;;;5013139;28;20275;-31
2022/05/14 00:35:52;;;;;;;4.53;3.50;;;12.20;99.90;;;;;;4979825;28;20184;-31
2022/05/14 00:38:18;;;;;;;6.37;4.33;;;12.10;99.90;;;;;;4979226;28;20215;-32
2022/05/14 00:40:54;;;;;;;5.23;3.80;;;12.10;99.90;;;;;;4979068;28;20203;-31
2022/05/14 00:43:21;;;;;;;5.80;3.47;;;12.10;99.90;;;;;;4987307;28;20176;-31
2022/05/14 00:46:14;;;;;;;6.90;4.53;;;11.90;99.90;;;;;;4992375;28;20182;-31
2022/05/14 00:48:42;;;;;;;5.13;3.70;;;11.90;99.90;;;;;;4992737;28;20212;-31
2022/05/14 00:51:13;;;;;;;8.40;4.77;;;11.90;99.90;;;;;;4962920;28;20187;-31
2022/05/14 00:53:45;;;;;;;4.80;3.83;;;11.90;99.90;;;;;;4979037;28;20176;-31
2022/05/14 00:56:14;;;;;;;7.43;3.73;;;11.90;99.90;;;;;;4978959;28;20292;-31
2022/05/14 00:58:54;;;;;;;5.47;3.67;;;11.80;99.90;;;;;;4979083;28;20222;-31
2022/05/14 01:01:20;;;;;;;9.83;4.43;;;11.70;99.90;;;;;;4978646;28;20221;-31
2022/05/14 01:03:47;;;;;;;5.33;3.87;;;11.70;99.90;;;;;;4979198;28;20186;-31
2022/05/14 01:06:16;;;;;;;5.97;4.13;;;11.70;99.90;;;;;;4994378;28;20226;-31
2022/05/14 01:08:43;;;;;;;7.63;4.40;;;11.60;99.90;;;;;;4994400;28;20268;-31
2022/05/14 01:11:11;;;;;;;6.60;4.17;;;11.60;99.90;;;;;;4993137;28;20199;-31
2022/05/14 01:13:37;;;;;;;10.57;4.20;;;11.50;99.90;;;;;;4993754;28;20187;-31
2022/05/14 01:16:05;;;;;;;8.07;4.27;;;11.50;99.90;;;;;;4978522;28;20179;-32
2022/05/14 01:18:33;;;;;;;5.30;4.10;;;11.50;99.90;;;;;;4994402;28;20297;-31
2022/05/14 01:21:17;;;;;;;7.67;4.27;;;11.40;99.90;;;;;;4978785;28;20277;-31
2022/05/14 01:26:40;;;;;;;5.63;4.40;;;11.50;99.90;;;;;;4994462;28;20628;-31
2022/05/14 01:29:23;;;;;;;5.57;4.30;;;11.50;99.90;;;;;;4979118;28;20210;-30
2022/05/14 01:31:55;;;;;;;9.07;4.83;;;11.60;99.90;;;;;;4978666;28;20222;-31
2022/05/14 01:34:30;;;;;;;6.03;4.37;;;11.50;99.90;;;;;;4978280;28;20218;-31
2022/05/14 01:36:56;;;;;;;6.40;4.57;;;11.50;99.90;;;;;;4994064;28;20239;-31
2022/05/14 01:39:23;;;;;;;7.00;4.17;;;11.50;99.90;;;;;;4978131;28;20183;-31
2022/05/14 01:41:51;;;;;;;7.97;4.23;;;11.50;99.90;;;;;;4978148;28;20204;-30
2022/05/14 01:44:18;;;;;;;5.40;3.93;;;11.50;99.90;;;;;;4982510;28;20187;-31
2022/05/14 01:46:44;;;;;;;6.73;3.87;;;11.50;99.90;;;;;;4959086;28;20190;-30
2022/05/14 01:49:10;;;;;;;6.00;3.90;;;11.60;99.90;;;;;;4993879;28;20199;-31
2022/05/14 01:51:37;;;;;;;3.87;3.57;;;11.60;99.90;;;;;;4978360;28;20709;-31
2022/05/14 01:54:06;;;;;;;4.40;4.00;;;11.60;99.90;;;;;;4978056;28;20580;-30
2022/05/14 01:56:32;;;;;;;5.03;4.00;;;11.50;99.90;;;;;;4994166;28;20222;-30
2022/05/14 01:58:58;;;;;;;8.40;4.50;;;11.50;99.90;;;;;;4977377;28;20179;-30
2022/05/14 02:01:33;;;;;;;6.70;4.30;;;11.30;99.90;;;;;;4993981;28;20275;-30
2022/05/14 02:04:03;;;;;;;8.47;4.10;;;11.10;99.90;;;;;;4993643;28;20270;-31
2022/05/14 02:06:30;;;;;;;6.13;4.60;;;10.90;99.90;;;;;;4977274;28;20183;-31
2022/05/14 02:08:58;;;;;;;6.77;4.53;;;10.80;99.90;;;;;;4993707;28;20180;-30
2022/05/14 02:11:25;;;;;;;4.60;4.20;;;10.80;99.90;;;;;;4993896;28;20203;-31
2022/05/14 02:13:58;;;;;;;7.13;4.37;;;10.70;99.90;;;;;;4982860;28;20600;-31
2022/05/14 02:16:26;;;;;;;6.60;4.40;;;10.70;99.90;;;;;;4958598;28;20266;-30
2022/05/14 02:18:52;;;;;;;6.13;4.40;;;10.70;99.90;;;;;;4993670;28;20190;-31
2022/05/14 02:21:20;;;;;;;5.37;4.10;;;10.70;99.90;;;;;;4979721;28;20192;-31
2022/05/14 02:23:49;;;;;;;5.90;4.27;;;10.70;99.90;;;;;;4979748;28;20168;-32
2022/05/14 02:26:15;;;;;;;7.07;4.73;;;10.70;99.90;;;;;;4995737;28;20180;-31
2022/05/14 02:28:42;;;;;;;5.10;4.10;;;10.70;99.90;;;;;;4979663;28;20181;-31
2022/05/14 02:31:08;;;;;;;8.90;5.17;;;10.60;99.90;;;;;;4996029;28;20218;-32
2022/05/14 02:33:34;;;;;;;6.87;4.60;;;10.50;99.90;;;;;;4995779;28;20193;-32
2022/05/14 02:36:00;;;;;;;6.93;4.53;;;10.50;99.90;;;;;;4995485;28;20180;-32
2022/05/14 02:38:30;;;;;;;6.90;4.50;;;10.50;99.90;;;;;;4976946;28;20261;-31
2022/05/14 02:40:57;;;;;;;5.57;4.33;;;10.40;99.90;;;;;;4993333;28;20618;-30
2022/05/14 02:43:24;;;;;;;4.80;4.30;;;10.40;99.90;;;;;;4993308;28;20175;-31
2022/05/14 02:45:50;;;;;;;5.53;4.60;;;10.30;99.90;;;;;;4977487;28;20190;-31
2022/05/14 02:48:16;;;;;;;8.33;4.63;;;10.30;99.90;;;;;;4976906;28;20179;-31
2022/05/14 02:50:43;;;;;;;7.53;4.37;;;10.30;99.90;;;;;;4993289;28;20200;-32
2022/05/14 02:53:09;;;;;;;7.40;4.73;;;10.30;99.90;;;;;;4993151;28;20179;-30
2022/05/14 02:55:35;;;;;;;5.83;4.20;;;10.40;99.90;;;;;;4977193;28;20180;-30
2022/05/14 02:58:01;;;;;;;6.10;4.47;;;10.50;99.90;;;;;;4977284;28;20203;-31
2022/05/14 03:00:28;;;;;;;7.87;4.83;;;10.50;99.90;;;;;;4993066;28;20199;-31
2022/05/14 03:02:54;;;;;;;4.33;3.93;;;10.50;99.90;;;;;;4977080;28;20175;-31
2022/05/14 03:05:23;;;;;;;4.60;4.20;;;10.50;99.90;;;;;;4977105;28;20187;-31
2022/05/14 03:07:49;;;;;;;8.43;4.60;;;10.50;99.90;;;;;;4993594;28;20214;-31
2022/05/14 03:10:16;;;;;;;7.60;4.47;;;10.50;99.90;;;;;;4992725;28;20242;-30
2022/05/14 03:12:43;;;;;;;6.87;4.43;;;10.40;99.90;;;;;;4993221;28;20199;-31
2022/05/14 03:15:10;;;;;;;6.27;4.33;;;10.40;99.90;;;;;;4976840;28;20617;-31
2022/05/14 03:17:37;;;;;;;5.20;4.20;;;10.40;99.90;;;;;;5011263;28;20270;-32
2022/05/14 03:20:09;;;;;;;5.87;4.00;;;10.50;99.90;;;;;;4994790;28;20179;-32
2022/05/14 03:22:36;;;;;;;6.43;4.60;;;10.50;99.90;;;;;;4996453;28;20195;-30
2022/05/14 03:25:04;;;;;;;5.87;4.23;;;10.60;99.90;;;;;;4996297;28;20191;-30
2022/05/14 03:27:30;;;;;;;8.23;4.77;;;10.60;99.90;;;;;;5014504;28;20238;-31
2022/05/14 03:29:56;;;;;;;5.53;4.60;;;10.50;99.90;;;;;;4996105;28;20176;-32
2022/05/14 03:32:24;;;;;;;6.07;4.63;;;10.40;99.90;;;;;;4980685;28;20215;-31
2022/05/14 03:34:51;;;;;;;4.70;4.30;;;10.20;99.90;;;;;;4996400;28;20188;-32
2022/05/14 03:37:17;;;;;;;4.90;4.40;;;10.10;99.90;;;;;;4980689;28;20219;-31
2022/05/14 03:39:43;;;;;;;9.33;4.60;;;10.00;99.90;;;;;;4996309;28;20186;-30
2022/05/14 03:42:09;;;;;;;9.43;4.30;;;10.00;99.90;;;;;;4996468;28;20282;-31
2022/05/14 03:44:35;;;;;;;7.77;4.53;;;9.90;99.90;;;;;;4981365;28;20183;-31
2022/05/14 03:47:01;;;;;;;7.97;4.63;;;10.00;99.90;;;;;;4980338;28;20282;-32
2022/05/14 03:49:27;;;;;;;5.90;4.50;;;10.00;99.90;;;;;;4980264;28;20229;-32
2022/05/14 03:51:53;;;;;;;9.23;4.80;;;9.90;99.90;;;;;;4979901;28;20227;-31
2022/05/14 03:54:19;;;;;;;5.20;4.20;;;9.90;99.90;;;;;;4980148;28;20179;-30
2022/05/14 03:56:45;;;;;;;6.83;4.57;;;9.90;99.90;;;;;;4979748;28;20203;-30
2022/05/14 03:59:12;;;;;;;6.17;4.03;;;9.90;99.90;;;;;;4980500;28;20210;-32
2022/05/14 04:01:39;;;;;;;7.53;4.23;;;10.00;99.90;;;;;;4980211;28;20242;-31
2022/05/14 04:04:05;;;;;;;6.53;3.93;;;10.10;99.90;;;;;;4996511;28;20175;-32
2022/05/14 04:06:31;;;;;;;5.10;4.60;;;10.10;99.90;;;;;;4995975;28;20210;-31
2022/05/14 04:08:57;;;;;;;5.17;4.30;;;10.10;99.90;;;;;;4995805;28;20172;-31
2022/05/14 04:11:24;;;;;;;6.33;4.47;;;10.10;99.90;;;;;;4996071;28;20222;-31
2022/05/14 04:13:50;;;;;;;4.47;3.93;;;10.10;99.90;;;;;;4979771;28;20187;-31
2022/05/14 04:16:16;;;;;;;5.17;4.30;;;10.10;99.90;;;;;;4980108;28;20210;-32
2022/05/14 04:18:43;;;;;;;4.97;4.37;;;10.10;99.90;;;;;;4995711;28;20218;-30
2022/05/14 04:21:10;;;;;;;5.10;4.30;;;10.20;99.90;;;;;;4979271;28;20199;-31
2022/05/14 04:23:37;;;;;;;6.13;4.20;;;10.20;99.90;;;;;;4980158;28;20194;-31
2022/05/14 04:26:04;;;;;;;7.07;3.90;;;10.30;99.90;;;;;;4979490;28;20175;-32
2022/05/14 04:28:30;;;;;;;5.43;4.37;;;10.30;99.90;;;;;;4996241;28;20628;-30
2022/05/14 04:30:56;;;;;;;5.93;4.27;;;10.30;99.90;;;;;;4978621;28;20286;-32
2022/05/14 04:33:24;;;;;;;8.07;4.63;;;10.30;99.90;;;;;;4979094;28;20180;-31
2022/05/14 04:35:50;;;;;;;4.73;4.23;;;10.30;99.90;;;;;;4995300;28;20660;-31
2022/05/14 04:38:16;;;;;;;6.07;4.57;;;10.30;99.90;;;;;;4995756;28;20218;-31
2022/05/14 04:40:44;;;;;;;6.60;4.37;;;10.40;99.90;;;;;;4993579;28;20197;-31
2022/05/14 04:43:12;;;;;;;8.87;4.87;;;10.40;99.90;;;;;;4976463;28;20257;-32
2022/05/14 04:45:39;;;;;;;6.93;4.23;;;10.50;99.90;;;;;;4991453;28;20270;-31
2022/05/14 04:48:06;;;;;;;4.73;3.93;;;10.50;99.90;;;;;;4978874;28;20179;-30
2022/05/14 04:50:33;;;;;;;4.87;3.80;;;10.50;99.90;;;;;;4994945;28;20175;-31
2022/05/14 04:52:59;;;;;;;5.53;4.00;;;10.60;99.90;;;;;;4979071;28;20187;-31
2022/05/14 04:55:26;;;;;;;4.93;3.83;;;10.60;99.90;;;;;;4978983;28;20184;-31
2022/05/14 04:57:53;;;;;;;5.27;3.67;;;10.70;99.90;;;;;;4979091;28;20211;-32
2022/05/14 05:00:21;;;;;;;7.63;4.20;;;10.80;99.90;;;;;;4978891;28;20186;-32
2022/05/14 05:05:32;;;;;;;4.40;4.00;;;10.80;99.90;;;;;;4994652;28;20183;-31
2022/05/14 05:07:58;;;;;;;6.80;3.73;;;10.90;99.90;;;;;;4978922;28;20187;-32
2022/05/14 05:10:27;;;;;;;7.60;3.90;;;10.90;99.90;;;;;;4978378;28;20175;-31
2022/05/14 05:12:53;;;;;;;5.93;4.57;;;11.00;99.90;;;;;;4960352;28;20196;-30
2022/05/14 05:15:19;;;;;;;5.07;4.37;;;11.10;99.90;;;;;;4979105;28;20190;-31
2022/05/14 05:17:45;;;;;;;7.87;4.30;;;11.20;99.90;;;;;;4994659;28;20202;-32
2022/05/14 05:20:11;;;;;;;5.43;4.60;;;11.20;99.90;;;;;;4994026;28;20187;-31
2022/05/14 05:22:38;;;;;;;5.03;4.53;;;11.30;99.90;;;;;;4978917;28;20207;-31
2022/05/14 05:25:06;;;;;;;8.50;4.93;;;11.40;99.90;;;;;;5012415;28;20180;-32
2022/05/14 05:27:32;;;;;;;8.23;5.10;;;11.60;99.90;;;;;;4994707;28;20183;-32
2022/05/14 05:29:58;;;;;;;5.47;4.80;;;11.70;99.90;;;;;;4994512;28;20194;-32
2022/05/14 05:32:24;;;;;;;8.63;5.47;;;11.80;99.90;;;;;;4994377;28;20219;-31
2022/05/14 05:34:50;;;;;;;6.20;5.27;;;11.90;99.90;;;;;;4977950;28;20186;-31
2022/05/14 05:37:15;;;;;;;6.43;5.33;;;12.00;99.90;;;;;;4994693;28;20203;-31
2022/05/14 05:39:41;;;;;;;6.87;5.53;;;12.10;99.90;;;;;;4994170;28;20175;-31
2022/05/14 05:42:07;;;;;;;5.97;5.47;;;12.10;99.90;;;;;;4964986;28;20211;-32
2022/05/14 05:44:34;;;;;;;6.07;5.47;;;12.20;99.90;;;;;;4988417;28;20175;-32
2022/05/14 05:47:04;;;;;;;8.30;5.87;;;12.40;99.90;;;;;;4994545;28;20184;-31
2022/05/14 05:49:30;;;;;;;8.40;5.50;;;12.50;99.90;;;;;;4977203;28;20195;-31
2022/05/14 05:51:56;;;;;;;8.20;5.70;;;12.70;99.90;;;;;;4994502;28;20199;-32
2022/05/14 05:57:06;;;;;;;10.37;5.23;;;13.00;99.90;;;;;;4994006;28;20215;-32
2022/05/14 05:59:33;;;;;;;4.87;4.27;;;13.10;99.90;;;;;;4992499;28;20184;-32
2022/05/14 06:01:58;;;;;;;6.17;4.63;;;13.20;99.90;;;;;;4994284;28;20213;-32
2022/05/14 06:04:24;;;;;;;6.70;5.10;;;13.30;99.90;;;;;;4993945;28;20193;-32
2022/05/14 06:06:50;;;;;;;7.37;5.20;;;13.40;99.90;;;;;;4978113;28;20714;-32
2022/05/14 06:09:20;;;;;;;7.67;5.27;;;13.50;99.90;;;;;;4977377;28;20186;-31
2022/05/14 06:11:46;;;;;;;7.50;4.70;;;13.70;99.90;;;;;;4993836;28;20214;-31
2022/05/14 06:14:13;;;;;;;5.93;4.80;;;13.80;99.90;;;;;;4993740;28;20212;-32
2022/05/14 06:16:39;;;;;;;7.30;4.90;;;13.90;99.90;;;;;;4977339;28;20302;-32
2022/05/14 06:19:06;;;;;;;5.50;5.00;;;14.10;99.90;;;;;;4986499;28;20226;-31
2022/05/14 06:21:33;;;;;;;6.47;5.03;;;14.10;99.90;;;;;;4983229;28;20207;-32
2022/05/14 06:24:00;;;;;;;6.37;4.73;;;14.20;99.90;;;;;;4993047;28;20214;-32
2022/05/14 06:26:26;;;;;;;5.20;4.70;;;14.30;99.90;;;;;;4989568;28;20199;-32
2022/05/14 06:28:52;;;;;;;5.73;4.50;;;14.50;99.90;;;;;;4991430;28;20183;-30
2022/05/14 06:31:17;;;;;;;7.63;5.17;;;14.70;99.90;;;;;;4994107;28;20210;-32
2022/05/14 06:33:47;;;;;;;7.50;4.90;;;14.80;99.90;;;;;;4994536;28;20187;-32
2022/05/14 06:36:14;;;;;;;5.10;4.20;;;14.90;99.90;;;;;;4979157;28;20175;-30
2022/05/14 06:38:40;;;;;;;7.17;4.67;;;15.00;99.90;;;;;;4977656;28;20207;-30
2022/05/14 06:41:12;;;;;;;6.40;4.40;;;15.10;99.90;;;;;;5016449;28;20207;-32
2022/05/14 06:43:38;;;;;;;5.60;4.57;;;15.20;99.90;;;;;;5007919;28;20190;-32
2022/05/14 06:46:04;;;;;;;8.30;4.70;;;15.30;99.90;;;;;;4977331;28;20652;-33
2022/05/14 06:48:31;;;;;;;4.80;4.40;;;15.50;99.90;;;;;;4993452;28;20192;-31
2022/05/14 06:51:01;;;;;;;10.20;4.70;;;15.70;99.90;;;;;;4992568;28;20306;-32
2022/05/14 06:53:28;;;;;;;7.40;4.20;;;15.80;99.90;;;;;;4994938;28;20181;-31
2022/05/14 06:55:57;;;;;;;6.33;5.00;;;15.90;99.90;;;;;;4996931;28;20187;-32
2022/05/14 06:58:32;;;;;;;5.10;4.53;;;16.00;99.90;;;;;;4996976;28;20230;-32
2022/05/14 07:00:59;;;;;;;7.73;4.73;;;16.00;99.90;;;;;;5014980;28;20271;-32
2022/05/14 07:08:55;;;;;;;6.13;4.60;;;16.20;99.90;;;;;;4995799;28;20195;-32
2022/05/14 07:11:21;;;;;;;6.17;4.20;;;16.30;99.90;;;;;;4990609;28;20212;-31
2022/05/14 07:13:47;;;;;;;5.77;4.23;;;16.50;99.90;;;;;;4977649;28;20187;-31
2022/05/14 07:16:13;;;;;;;4.37;3.97;;;16.70;99.90;;;;;;5016974;28;20171;-32
2022/05/14 07:18:39;;;;;;;5.27;3.40;;;16.80;99.90;;;;;;5006783;28;20207;-32
2022/05/14 07:21:05;;;;;;;4.53;3.90;;;17.00;99.90;;;;;;4980593;28;20213;-31
2022/05/14 07:23:30;;;;;;;5.93;3.60;;;17.20;99.90;;;;;;5002411;28;20202;-31
2022/05/14 07:26:05;;;;;;;3.50;3.20;;;17.30;99.90;;;;;;5013877;28;20185;-32
2022/05/14 07:28:33;;;;;;;5.13;3.65;;;17.40;99.90;;;;;;5000319;28;20264;-31
2022/05/14 07:31:01;;;;;;;5.20;3.90;;;17.40;99.90;;;;;;4990934;28;20738;-32
2022/05/14 07:33:28;;;;;;;5.93;3.50;;;17.60;99.90;;;;;;4997673;28;20180;-32
2022/05/14 07:35:54;;;;;;;5.20;3.60;;;17.70;99.90;;;;;;4982347;28;20176;-32
2022/05/14 07:38:21;;;;;;;5.63;3.90;;;17.90;99.90;;;;;;4980070;28;20203;-32
2022/05/14 07:40:47;;;;;;;5.70;3.45;;;18.00;99.90;;;;;;4996183;28;20199;-32
2022/05/14 07:43:18;;;;;;;4.70;3.35;;;18.00;99.90;;;;;;5015457;28;20191;-32
2022/05/14 07:45:48;;;;;;;6.78;3.60;;;18.10;99.90;;;;;;5016367;28;20225;-32
2022/05/14 07:48:24;;;;;;;4.28;2.90;;;18.10;99.90;;;;;;4998644;28;20156;-33
2022/05/14 07:50:50;;;;;;;4.93;3.47;;;18.10;99.90;;;;;;4981692;28;20202;-32
2022/05/14 07:53:18;;;;;;;3.42;2.90;;;18.20;99.90;;;;;;4996796;28;20187;-32
2022/05/14 07:55:44;;;;;;;5.80;3.10;;;18.40;99.90;;;;;;4996270;28;20183;-32
2022/05/14 07:58:11;;;;;;;5.15;3.60;;;18.50;99.90;;;;;;4980183;28;20214;-32
2022/05/14 08:00:39;;;;;;;5.47;3.63;;;18.40;99.90;;;;;;4980001;28;20290;-32
2022/05/14 08:03:05;;;;;;;5.32;3.20;;;18.40;99.90;;;;;;4996343;28;20171;-31
2022/05/14 08:05:31;;;;;;;4.55;3.00;;;18.60;99.90;;;;;;4995567;28;20292;-32
2022/05/14 08:07:57;;;;;;;4.03;2.88;;;18.80;99.90;;;;;;4979994;28;20246;-32
2022/05/14 08:10:25;;;;;;;4.78;3.03;;;18.80;99.90;;;;;;4979831;28;20325;-32
2022/05/14 08:12:54;;;;;;;5.13;3.45;;;18.90;99.90;;;;;;4979762;28;20195;-32
2022/05/14 08:15:21;;;;;;;3.42;2.65;;;19.20;99.90;;;;;;4996084;28;20170;-32
2022/05/14 08:17:47;;;;;;;4.47;2.47;;;19.40;99.90;;;;;;4979881;28;20274;-33
2022/05/14 08:20:15;;;;;;;5.55;2.55;;;19.50;99.90;;;;;;5013601;28;20258;-33
2022/05/14 08:25:27;;;;;;;4.50;2.20;;;19.90;99.90;;;;;;5013526;28;20644;-32
2022/05/14 08:27:54;;;;;;;3.63;2.20;;;20.00;99.90;;;;;;4995808;28;20184;-32
2022/05/14 08:30:23;;;;;;;2.72;1.73;;;20.10;99.90;;;;;;4995636;28;20175;-33
2022/05/14 08:32:49;;;;;;;4.53;2.00;;;20.30;99.90;;;;;;4996316;28;20190;-32
2022/05/14 08:35:17;;;;;;;1.88;1.77;;;20.40;99.90;;;;;;5013146;28;20179;-32
2022/05/14 08:37:44;;;;;;;2.83;1.88;;;20.60;99.90;;;;;;4995580;28;20269;-32
2022/05/14 08:40:20;;;;;;;3.42;2.05;;;20.70;99.90;;;;;;4979056;28;20646;-32
2022/05/14 08:42:52;;;;;;;2.15;1.77;;;21.00;99.90;;;;;;4979885;28;20187;-32
2022/05/14 08:45:21;;;;;;;3.72;1.80;;;21.10;99.90;;;;;;4995423;28;20195;-32
2022/05/14 08:47:56;;;;;;;3.75;2.03;;;21.10;99.90;;;;;;4979058;28;20179;-33
2022/05/14 08:50:42;;;;;;;6.38;2.80;;;21.10;99.90;;;;;;4978923;28;20205;-33
2022/05/14 08:53:13;;;;;;;6.78;1.63;;;21.10;99.90;;;;;;4979449;28;20179;-33
2022/05/14 08:56:20;;;;;;;2.78;1.67;;;21.20;99.90;;;;;;4995330;28;20187;-32
2022/05/14 08:59:20;;;;;;;5.40;1.83;;;21.20;99.90;;;;;;4932778;28;20222;-32
2022/05/14 09:01:47;;;;;;;3.05;1.63;;;21.20;99.90;;;;;;4995094;28;20207;-33
2022/05/14 09:04:20;;;;;;;3.45;1.73;;;21.50;99.90;;;;;;4994933;28;20187;-32
2022/05/14 09:06:47;;;;;;;2.92;1.60;;;21.80;99.90;;;;;;4978968;28;20233;-31
2022/05/14 09:09:13;;;;;;;1.88;1.50;;;22.00;99.90;;;;;;4978585;28;20188;-33
2022/05/14 09:11:50;;;;;;;6.63;1.90;;;22.30;99.90;;;;;;4994830;28;20238;-33
2022/05/14 09:14:39;;;;;;;4.78;1.75;;;22.10;99.90;;;;;;4995061;28;20178;-33
2022/05/14 09:17:20;;;;;;;5.32;2.03;;;21.80;99.90;;;;;;4993755;28;20207;-32
2022/05/14 09:19:48;;;;;;;1.95;1.58;;;21.70;99.90;;;;;;4978562;28;20187;-32
2022/05/14 09:22:23;;;;;;;3.45;1.40;;;22.00;99.90;;;;;;4994392;28;20678;-32
2022/05/14 09:25:12;;;;;;;5.03;1.90;;;22.30;99.90;;;;;;4994942;28;20181;-33
2022/05/14 09:27:52;;;;;;;2.58;1.45;;;22.20;99.90;;;;;;4994748;28;20183;-32
2022/05/14 09:30:26;;;;;;;2.80;1.60;;;22.20;99.90;;;;;;4993647;28;20175;-32
2022/05/14 09:32:52;;;;;;;2.75;1.83;;;22.40;99.90;;;;;;4994634;28;20182;-33
2022/05/14 09:35:25;;;;;;;3.25;1.50;;;22.60;99.90;;;;;;4978208;28;20183;-32
2022/05/14 09:37:55;;;;;;;4.00;1.77;;;22.70;99.90;;;;;;4993409;28;20265;-32
2022/05/14 09:40:29;;;;;;;3.90;1.70;;;22.70;99.90;;;;;;4977712;28;20184;-33
2022/05/14 09:43:06;;;;;;;4.25;1.65;;;22.90;99.90;;;;;;4972501;28;20349;-33
2022/05/14 09:45:35;;;;;;;3.78;1.73;;;23.10;99.90;;;;;;5007409;28;20214;-32
2022/05/14 09:48:21;;;;;;;3.33;1.40;;;23.20;99.90;;;;;;4975990;28;20270;-32
2022/05/14 09:50:55;;;;;;;4.05;1.52;;;23.30;99.90;;;;;;4975868;28;20199;-33
2022/05/14 09:53:35;;;;;;;2.42;1.10;;;23.50;99.90;;;;;;4974296;28;20183;-32
2022/05/14 09:56:30;;;;;;;2.53;1.58;;;23.30;99.90;;;;;;5009090;28;20215;-33
2022/05/14 09:59:07;;;;;;;2.85;1.40;;;23.40;99.90;;;;;;4991301;28;20213;-33
2022/05/14 10:01:41;;;;;;;2.88;1.45;;;23.70;99.90;;;;;;4976162;28;20199;-32
2022/05/14 10:04:35;;;;;;;2.35;1.42;;;23.90;99.90;;;;;;4992246;28;20211;-33
2022/05/14 10:07:22;;;;;;;2.50;1.42;;;24.00;99.90;;;;;;4974687;28;20179;-33
2022/05/14 10:10:08;;;;;;;2.13;1.40;;;23.70;99.90;;;;;;4979050;28;20731;-32
2022/05/14 10:12:40;;;;;;;2.38;1.20;;;24.00;99.90;;;;;;4964609;28;20218;-33
2022/05/14 10:15:41;;;;;;;3.78;1.48;;;23.90;99.90;;;;;;4985548;28;20253;-33
2022/05/14 10:18:34;;;;;;;4.38;1.85;;;24.10;99.90;;;;;;4971263;28;20294;-33
2022/05/14 10:21:34;;;;;;;4.30;1.98;;;23.90;99.90;;;;;;4984803;28;20234;-33
2022/05/14 10:27:29;;;;;;;3.67;2.03;;;23.70;99.90;;;;;;5008082;28;20175;-32
2022/05/14 10:30:22;;;;;;;3.05;1.73;;;23.50;99.90;;;;;;5001248;28;20211;-32
2022/05/14 10:33:12;;;;;;;3.45;1.77;;;23.40;99.90;;;;;;5007474;28;20675;-33
2022/05/14 10:36:08;;;;;;;3.50;2.10;;;23.50;99.90;;;;;;4993489;28;20183;-32
2022/05/14 10:38:43;;;;;;;3.97;1.60;;;23.50;99.90;;;;;;4976609;28;20206;-33
2022/05/14 10:41:11;;;;;;;4.93;1.90;;;23.70;99.90;;;;;;4990747;28;20219;-33
2022/05/14 10:43:57;;;;;;;2.47;1.52;;;23.80;99.70;;;;;;4974525;28;20202;-33
2022/05/14 10:46:26;;;;;;;5.15;2.05;;;23.80;99.70;;;;;;4973833;28;20187;-33
2022/05/14 10:49:17;;;;;;;3.08;1.65;;;23.90;99.90;;;;;;5010318;28;20190;-33
2022/05/14 10:51:46;;;;;;;2.42;1.50;;;24.00;99.90;;;;;;4981308;28;20213;-33
2022/05/14 10:54:18;;;;;;;4.93;1.63;;;24.10;99.80;;;;;;4976716;28;20242;-33
2022/05/14 10:57:00;;;;;;;3.85;1.85;;;24.00;99.90;;;;;;4975475;28;20191;-33
2022/05/14 11:00:00;;;;;;;2.70;1.60;;;24.40;99.20;;;;;;5003803;28;20218;-33
2022/05/14 11:02:33;;;;;;;2.63;1.63;;;24.70;99.20;;;;;;4995492;28;20247;-34
2022/05/14 11:05:01;;;;;;;1.73;1.48;;;25.00;99.90;;;;;;4988822;28;20245;-33
2022/05/14 11:07:32;;;;;;;5.57;2.85;;;25.40;99.80;;;;;;4989356;28;20218;-33
2022/05/14 11:10:22;;;;;;;2.42;1.52;;;25.20;99.40;;;;;;4989282;28;20296;-33
2022/05/14 11:12:50;;;;;;;11.77;2.08;;;25.20;98.00;;;;;;4998560;28;20187;-33
2022/05/14 11:15:26;;;;;;;5.10;1.70;;;25.30;97.70;;;;;;5007475;28;20183;-32
2022/05/14 11:18:13;;;;;;;2.95;1.52;;;25.40;97.70;;;;;;4995510;28;20211;-33
2022/05/14 11:21:03;;;;;;;2.20;1.42;;;25.40;97.00;;;;;;4992562;28;20203;-33
2022/05/14 11:23:29;;;;;;;2.55;1.63;;;25.30;96.50;;;;;;4991262;28;20179;-33
2022/05/14 11:26:13;;;;;;;2.85;1.42;;;25.00;95.10;;;;;;4977876;28;20249;-33
2022/05/14 11:28:39;;;;;;;3.05;1.60;;;25.00;95.90;;;;;;4963434;28;20179;-33
2022/05/14 11:31:27;;;;;;;4.22;1.73;;;25.40;96.70;;;;;;4978959;28;20223;-33
2022/05/14 11:33:57;;;;;;;2.20;1.20;;;25.70;96.20;;;;;;4994892;28;20190;-34
2022/05/14 11:36:34;;;;;;;2.85;1.60;;;25.90;94.90;;;;;;5000967;28;20179;-33
2022/05/14 11:39:24;;;;;;;3.50;1.50;;;26.30;95.10;;;;;;5007556;28;20663;-33
2022/05/14 11:41:53;;;;;;;2.97;1.60;;;26.40;95.80;;;;;;5008553;28;20205;-33
2022/05/14 11:45:01;;;;;;;2.78;1.52;;;26.40;96.10;;;;;;5009669;28;20763;-34
2022/05/14 11:47:54;;;;;;;2.28;1.40;;;26.20;96.20;;;;;;4944492;28;20280;-33
2022/05/14 11:50:26;;;;;;;3.45;1.42;;;26.00;93.40;;;;;;4995291;28;20210;-33
2022/05/14 11:53:05;;;;;;;3.70;1.58;;;26.00;94.70;;;;;;4999604;28;20186;-33
2022/05/14 11:56:00;;;;;;;4.05;1.95;;;26.00;94.10;;;;;;5007381;28;20266;-34
2022/05/14 11:58:45;;;;;;;3.33;1.30;;;25.70;94.20;;;;;;5006449;28;20200;-34
2022/05/14 12:01:28;;;;;;;2.67;1.55;;;25.70;93.90;;;;;;4999500;28;20691;-34
2022/05/14 12:03:54;;;;;;;2.20;1.40;;;25.90;96.60;;;;;;4987285;28;20190;-33
2022/05/14 12:06:48;;;;;;;2.40;1.60;;;26.20;94.40;;;;;;4975510;28;20167;-34
2022/05/14 12:09:51;;;;;;;2.22;1.35;;;26.50;94.00;;;;;;5002252;28;20183;-34
2022/05/14 12:12:36;;;;;;;2.70;1.35;;;26.50;91.80;;;;;;5002810;28;20261;-34
2022/05/14 12:15:09;;;;;;;4.57;1.67;;;26.40;92.70;;;;;;4999706;28;20183;-33
2022/05/14 12:17:35;;;;;;;4.60;1.63;;;26.50;93.40;;;;;;4994805;28;20211;-34
2022/05/14 12:20:03;;;;;;;2.30;1.50;;;26.60;92.20;;;;;;5012007;28;20171;-34
2022/05/14 12:22:30;;;;;;;3.38;1.60;;;26.70;91.90;;;;;;5011269;28;20199;-34
2022/05/14 12:25:01;;;;;;;3.58;1.60;;;26.90;92.70;;;;;;4995517;28;20222;-34
2022/05/14 12:27:29;;;;;;;2.03;1.40;;;26.90;92.00;;;;;;5011914;28;20175;-36
2022/05/14 12:30:12;;;;;;;3.35;1.17;;;26.30;94.60;;;;;;4978801;28;20202;-34
2022/05/14 12:35:30;;;;;;;2.72;1.50;;;27.20;93.20;;;;;;4995613;28;20183;-35
2022/05/14 12:37:59;;;;;;;2.17;1.45;;;27.50;91.50;;;;;;4995412;28;20207;-34
2022/05/14 12:40:38;;;;;;;2.38;1.40;;;27.60;90.60;;;;;;4995378;28;20230;-34
2022/05/14 12:43:14;;;;;;;1.98;1.40;;;27.90;92.10;;;;;;4994228;28;20183;-34
2022/05/14 12:45:43;;;;;;;2.50;1.48;;;27.90;90.40;;;;;;4994207;28;20175;-34
2022/05/14 12:48:12;;;;;;;3.90;1.55;;;28.00;91.00;;;;;;5028172;28;20175;-34
2022/05/14 12:50:49;;;;;;;2.38;1.30;;;28.20;90.70;;;;;;4995473;28;20278;-35
2022/05/14 12:53:15;;;;;;;1.75;1.27;;;28.20;91.60;;;;;;4996063;28;20207;-35
2022/05/14 12:55:49;;;;;;;2.38;1.48;;;28.50;91.70;;;;;;4996312;28;20183;-33
2022/05/14 12:58:17;;;;;;;2.67;1.55;;;28.60;90.90;;;;;;4995016;28;20209;-35
2022/05/14 13:00:49;;;;;;;3.63;1.40;;;28.50;91.50;;;;;;4994755;28;20195;-34
2022/05/14 13:03:19;;;;;;;2.38;1.30;;;28.70;91.20;;;;;;4994811;28;20179;-34
2022/05/14 13:05:55;;;;;;;2.28;1.58;;;28.90;91.00;;;;;;4991711;28;20175;-34
2022/05/14 13:08:26;;;;;;;3.63;1.63;;;29.00;89.80;;;;;;4994660;28;20274;-34
2022/05/14 13:10:56;;;;;;;1.75;1.20;;;29.00;89.60;;;;;;5012306;28;20206;-34
2022/05/14 13:13:41;;;;;;;2.30;1.48;;;29.00;90.00;;;;;;4996093;28;20205;-33
2022/05/14 13:16:21;;;;;;;4.45;1.58;;;28.90;90.00;;;;;;4982723;28;20209;-35
2022/05/14 13:19:18;;;;;;;3.67;1.50;;;28.90;90.40;;;;;;4987447;28;20203;-34
2022/05/14 13:21:53;;;;;;;1.73;1.30;;;29.10;90.00;;;;;;4965344;28;20290;-36
2022/05/14 13:24:22;;;;;;;1.75;1.30;;;29.20;89.90;;;;;;4997829;28;20254;-34
2022/05/14 13:26:51;;;;;;;2.05;1.50;;;29.30;89.20;;;;;;5008769;28;20179;-34
2022/05/14 13:29:29;;;;;;;3.85;1.30;;;29.30;87.70;;;;;;4978728;28;20190;-34
2022/05/14 13:32:12;;;;;;;1.88;1.40;;;29.10;88.90;;;;;;4999284;28;20210;-35
2022/05/14 13:37:30;;;;;;;2.53;1.60;;;28.30;82.40;;;;;;4997010;28;20258;-34